Time;durP1;ratioP1;P1;durP2;ratioP2;P2;SDS_P1;SDS_P2;PMS_P1;PMS_P2;Temp;Humidity;BMP_temperature;BMP_pressure;BME280_temperature;BME280_humidity;BME280_pressure;Samples;Min_cycle;Max_cycle;Signal;HPM_P1;HPM_P2
2023/01/03 00:02:05;;;;;;;0.60;0.43;;;;;;;6.71;100.00;101347.88;5042260;28;20540;-51
2023/01/03 00:04:32;;;;;;;0.50;0.30;;;;;;;6.66;100.00;101344.34;5047561;28;20458;-52
2023/01/03 00:06:58;;;;;;;0.50;0.50;;;;;;;6.57;100.00;101347.81;5038426;28;20449;-52
2023/01/03 00:09:25;;;;;;;0.70;0.50;;;;;;;6.44;100.00;101348.63;5040798;28;20523;-51
2023/01/03 00:14:42;;;;;;;0.50;0.50;;;;;;;6.41;100.00;101348.59;5045389;28;20614;-52
2023/01/03 00:17:09;;;;;;;0.40;0.27;;;;;;;6.26;100.00;101346.78;5036435;28;20829;-52
2023/01/03 00:19:42;;;;;;;0.97;0.40;;;;;;;6.28;100.00;101341.50;5043901;28;20488;-52
2023/01/03 00:22:10;;;;;;;0.87;0.30;;;;;;;6.29;100.00;101341.50;5047356;28;20447;-52
2023/01/03 00:24:37;;;;;;;0.50;0.50;;;;;;;6.33;100.00;101347.69;5043125;28;20447;-52
2023/01/03 00:27:04;;;;;;;0.90;0.83;;;;;;;6.35;100.00;101338.91;5040360;28;20451;-51
2023/01/03 00:29:30;;;;;;;2.00;1.90;;;;;;;6.48;100.00;101345.16;5031514;28;20465;-51
2023/01/03 00:31:57;;;;;;;0.50;0.50;;;;;;;6.47;100.00;101348.66;5035868;28;20447;-52
2023/01/03 00:34:24;;;;;;;0.50;0.40;;;;;;;6.33;100.00;101338.03;5042126;28;20799;-52
2023/01/03 00:36:50;;;;;;;1.20;0.93;;;;;;;6.46;100.00;101339.84;5046830;28;20459;-52
2023/01/03 00:39:17;;;;;;;0.70;0.57;;;;;;;6.49;100.00;101333.69;5045407;28;20522;-52
2023/01/03 00:41:43;;;;;;;0.50;0.37;;;;;;;6.54;100.00;101330.19;5039017;28;20966;-53
2023/01/03 00:44:10;;;;;;;0.70;0.63;;;;;;;6.68;100.00;101337.28;5041513;28;20448;-52
2023/01/03 00:46:36;;;;;;;0.40;0.30;;;;;;;6.66;100.00;101339.94;5037890;28;20504;-50
2023/01/03 00:49:03;;;;;;;0.30;0.20;;;;;;;6.77;100.00;101338.22;5042381;28;20464;-51
2023/01/03 00:51:32;;;;;;;0.60;0.50;;;;;;;6.80;100.00;101334.72;5046662;28;20467;-52
2023/01/03 00:54:00;;;;;;;0.43;0.30;;;;;;;6.80;100.00;101337.34;5044781;28;20469;-52
2023/01/03 00:56:29;;;;;;;1.40;0.47;;;;;;;6.78;100.00;101344.38;5039369;28;20524;-50
2023/01/03 00:58:56;;;;;;;3.80;0.67;;;;;;;6.73;100.00;101346.16;5040733;28;20863;-52
2023/01/03 01:01:36;;;;;;;0.40;0.30;;;;;;;6.67;100.00;101349.63;5040703;28;20464;-52
2023/01/03 01:04:19;;;;;;;0.70;0.40;;;;;;;6.60;100.00;101355.78;5040168;28;20993;-53
2023/01/03 01:06:49;;;;;;;0.30;0.20;;;;;;;6.71;100.00;101356.69;5023053;28;20832;-53
2023/01/03 01:09:19;;;;;;;1.10;0.83;;;;;;;6.79;100.00;101359.38;5046126;28;20483;-53
2023/01/03 01:11:46;;;;;;;0.80;0.80;;;;;;;6.75;100.00;101361.13;5043833;28;20454;-53
2023/01/03 01:14:21;;;;;;;0.70;0.50;;;;;;;6.67;100.00;101360.19;5039573;28;20457;-52
2023/01/03 01:16:49;;;;;;;0.80;0.80;;;;;;;6.56;100.00;101361.88;5040303;28;20475;-51
2023/01/03 01:19:17;;;;;;;2.00;1.80;;;;;;;6.66;100.00;101358.44;5046123;28;20521;-52
2023/01/03 01:21:44;;;;;;;0.90;0.70;;;;;;;6.54;100.00;101363.66;5045934;28;20451;-52
2023/01/03 01:24:11;;;;;;;0.50;0.30;;;;;;;6.52;100.00;101366.28;5039087;28;20553;-52
2023/01/03 01:26:43;;;;;;;0.50;0.33;;;;;;;6.49;100.00;101373.31;5039206;28;20518;-52
2023/01/03 01:29:11;;;;;;;0.53;0.50;;;;;;;6.46;100.00;101381.22;5044830;28;20491;-52
2023/01/03 01:31:39;;;;;;;0.70;0.70;;;;;;;6.63;100.00;101386.59;5045576;28;20451;-51
2023/01/03 01:34:06;;;;;;;0.30;0.20;;;;;;;6.44;100.00;101385.59;5040794;28;20541;-53
2023/01/03 01:36:36;;;;;;;0.50;0.40;;;;;;;6.38;100.00;101388.22;5037905;28;20451;-52
2023/01/03 01:39:10;;;;;;;0.50;0.37;;;;;;;6.26;100.00;101404.84;5030080;28;20984;-52
2023/01/03 01:44:47;;;;;;;0.40;0.30;;;;;;;6.10;100.00;101403.84;5040043;28;20455;-52
2023/01/03 01:47:20;;;;;;;0.50;0.50;;;;;;;6.10;100.00;101411.78;5031483;28;20457;-53
2023/01/03 01:49:51;;;;;;;0.60;0.60;;;;;;;6.02;100.00;101407.28;5038748;28;20540;-51
2023/01/03 01:52:19;;;;;;;1.03;0.70;;;;;;;6.15;100.00;101414.44;5041128;28;20505;-53
2023/01/03 01:54:48;;;;;;;0.83;0.83;;;;;;;6.10;100.00;101414.41;5045479;28;20444;-52
2023/01/03 01:57:17;;;;;;;0.77;0.67;;;;;;;6.07;100.00;101421.44;5043629;28;20478;-53
2023/01/03 01:59:44;;;;;;;0.60;0.60;;;;;;;5.97;100.00;101415.19;5038479;28;20467;-53
2023/01/03 02:02:13;;;;;;;0.60;0.40;;;;;;;5.93;100.00;101416.94;5039952;28;20450;-52
2023/01/03 02:04:40;;;;;;;0.53;0.53;;;;;;;5.91;100.00;101416.03;5045625;28;20570;-52
2023/01/03 02:07:06;;;;;;;0.40;0.40;;;;;;;5.76;100.00;101418.50;5034210;28;20813;-52
2023/01/03 02:09:34;;;;;;;0.60;0.40;;;;;;;5.68;100.00;101411.38;5044540;28;20487;-52
2023/01/03 02:15:03;;;;;;;0.40;0.30;;;;;;;5.69;100.00;101408.75;5041239;28;20458;-53
2023/01/03 02:17:33;;;;;;;0.50;0.30;;;;;;;5.64;100.00;101408.72;5045255;28;20466;-52
2023/01/03 02:20:25;;;;;;;0.40;0.23;;;;;;;5.48;100.00;101405.88;5043905;28;20470;-52
2023/01/03 02:22:52;;;;;;;1.17;0.30;;;;;;;5.47;100.00;101409.41;5034567;28;20957;-50
2023/01/03 02:25:52;;;;;;;0.50;0.30;;;;;;;5.31;100.00;101408.34;5045570;28;20451;-52
2023/01/03 02:28:46;;;;;;;0.60;0.60;;;;;;;5.28;100.00;101401.31;5045344;28;20446;-53
2023/01/03 02:31:24;;;;;;;0.30;0.20;;;;;;;5.25;100.00;101409.19;5041357;28;20494;-53
2023/01/03 02:34:13;;;;;;;0.50;0.40;;;;;;;5.13;100.00;101400.25;5045382;28;20530;-53
2023/01/03 02:37:12;;;;;;;0.40;0.30;;;;;;;5.16;100.00;101411.72;5045107;28;20465;-53
2023/01/03 02:39:54;;;;;;;0.50;0.43;;;;;;;5.14;100.00;101405.53;5037814;28;20474;-53
2023/01/03 02:45:58;;;;;;;1.03;0.70;;;;;;;5.08;100.00;101408.13;5040739;28;20452;-52
2023/01/03 02:48:46;;;;;;;3.37;0.93;;;;;;;5.17;100.00;101415.22;5045076;28;20440;-51
2023/01/03 02:51:20;;;;;;;0.60;0.40;;;;;;;5.05;100.00;101414.22;5044934;28;20906;-53
2023/01/03 02:53:49;;;;;;;1.27;1.27;;;;;;;4.85;100.00;101414.84;5041497;28;20530;-53
2023/01/03 02:56:25;;;;;;;1.63;0.43;;;;;;;4.88;100.00;101417.50;5038131;28;20541;-52
2023/01/03 02:58:57;;;;;;;0.30;0.20;;;;;;;4.85;100.00;101414.84;5040345;28;20463;-53
2023/01/03 03:01:25;;;;;;;0.60;0.60;;;;;;;4.86;100.00;101417.50;5045005;28;20444;-53
2023/01/03 03:03:52;;;;;;;0.40;0.30;;;;;;;4.82;100.00;101420.09;5044425;28;20932;-52
2023/01/03 03:06:35;;;;;;;0.30;0.30;;;;;;;4.79;100.00;101414.75;5041557;28;20454;-52
2023/01/03 03:09:02;;;;;;;0.40;0.40;;;;;;;5.05;100.00;101414.22;5043783;28;20478;-52
2023/01/03 03:14:24;;;;;;;0.33;0.27;;;;;;;5.09;100.00;101411.63;5041544;28;20477;-52
2023/01/03 03:16:54;;;;;;;0.53;0.37;;;;;;;5.02;100.00;101413.28;5042044;28;20820;-52
2023/01/03 03:25:43;;;;;;;0.40;0.30;;;;;;;4.70;100.00;101418.16;5041561;28;20450;-52
2023/01/03 03:31:17;;;;;;;0.47;0.30;;;;;;;4.79;100.00;101426.16;5034339;28;20497;-52
2023/01/03 03:33:55;;;;;;;0.40;0.33;;;;;;;4.70;100.00;101429.59;5041528;28;20446;-52
2023/01/03 03:36:37;;;;;;;0.30;0.20;;;;;;;4.63;100.00;101434.72;5041136;28;20452;-52
2023/01/03 03:44:58;;;;;;;0.70;0.60;;;;;;;4.62;100.00;101427.69;5034071;28;20477;-52
2023/01/03 03:45:01;;;;;;;0.60;0.50;;;;;;;4.31;100.00;101432.53;5038947;28;20505;-52
2023/01/03 03:47:31;;;;;;;0.57;0.47;;;;;;;4.14;100.00;101431.38;5045917;28;20442;-53
2023/01/03 03:50:03;;;;;;;0.60;0.60;;;;;;;4.11;100.00;101426.97;5040565;28;20497;-52
2023/01/03 03:52:32;;;;;;;0.60;0.50;;;;;;;4.17;100.00;101426.16;5041738;28;20815;-53
2023/01/03 03:55:06;;;;;;;0.50;0.47;;;;;;;4.23;100.00;101436.75;5047702;28;21064;-52
2023/01/03 03:57:46;;;;;;;0.50;0.50;;;;;;;4.05;100.00;101445.25;5047502;28;20459;-53
2023/01/03 04:00:21;;;;;;;0.50;0.40;;;;;;;4.01;100.00;101445.19;5043063;28;20469;-53
2023/01/03 04:02:48;;;;;;;0.70;0.70;;;;;;;3.97;100.00;101448.59;5040940;28;20450;-52
2023/01/03 04:05:19;;;;;;;0.87;0.87;;;;;;;4.06;100.00;101452.28;5043756;28;20459;-53
2023/01/03 04:07:46;;;;;;;0.40;0.33;;;;;;;4.03;100.00;101451.34;5035957;28;20447;-53
2023/01/03 04:10:14;;;;;;;0.30;0.20;;;;;;;4.07;100.00;101447.91;5045467;28;20494;-51
2023/01/03 04:12:40;;;;;;;0.40;0.40;;;;;;;4.01;100.00;101439.94;5040342;28;20451;-52
2023/01/03 04:15:07;;;;;;;1.13;1.03;;;;;;;4.08;100.00;101442.66;5041833;28;20456;-53
2023/01/03 04:17:33;;;;;;;0.40;0.20;;;;;;;4.18;100.00;101442.81;5047021;28;20950;-52
2023/01/03 04:20:00;;;;;;;0.60;0.50;;;;;;;4.29;100.00;101449.16;5045820;28;20996;-53
2023/01/03 04:22:26;;;;;;;0.40;0.40;;;;;;;4.32;100.00;101452.72;5040405;28;20443;-53
2023/01/03 04:24:53;;;;;;;0.60;0.40;;;;;;;4.23;100.00;101444.66;5041402;28;20876;-52
2023/01/03 04:27:19;;;;;;;4.63;0.50;;;;;;;4.24;100.00;101449.06;5047094;28;20857;-52
2023/01/03 04:29:46;;;;;;;1.07;1.07;;;;;;;4.28;100.00;101450.91;5046046;28;20497;-52
2023/01/03 04:32:12;;;;;;;1.10;1.00;;;;;;;4.31;100.00;101448.31;5040023;28;20454;-52
2023/01/03 04:34:38;;;;;;;0.50;0.50;;;;;;;4.50;100.00;101446.81;5041204;28;20478;-52
2023/01/03 04:37:05;;;;;;;0.50;0.40;;;;;;;4.51;100.00;101450.34;5046847;28;20458;-53
2023/01/03 04:39:31;;;;;;;0.63;0.43;;;;;;;4.72;100.00;101450.66;5045940;28;20524;-51
2023/01/03 04:42:00;;;;;;;0.40;0.30;;;;;;;4.82;100.00;101449.06;5039816;28;20493;-53
2023/01/03 04:44:27;;;;;;;0.57;0.50;;;;;;;4.62;100.00;101452.28;5040540;28;20494;-53
2023/01/03 04:46:53;;;;;;;0.93;0.50;;;;;;;4.64;100.00;101458.44;5027133;28;20958;-51
2023/01/03 04:49:20;;;;;;;0.87;0.37;;;;;;;4.51;100.00;101459.13;5039880;28;20476;-51
2023/01/03 04:51:46;;;;;;;0.40;0.33;;;;;;;4.39;100.00;101464.22;5046277;28;20519;-52
2023/01/03 04:54:13;;;;;;;0.53;0.53;;;;;;;4.46;100.00;101459.06;5039866;28;20998;-52
2023/01/03 04:56:39;;;;;;;1.07;0.77;;;;;;;4.49;100.00;101467.88;5039889;28;20470;-52
2023/01/03 04:59:06;;;;;;;0.40;0.30;;;;;;;4.42;100.00;101465.16;5039399;28;20559;-52
2023/01/03 05:01:32;;;;;;;0.40;0.40;;;;;;;4.49;100.00;101462.59;5046037;28;20514;-53
2023/01/03 05:04:00;;;;;;;1.40;1.30;;;;;;;4.27;100.00;101469.31;5046012;28;20815;-51
2023/01/03 05:06:28;;;;;;;0.30;0.30;;;;;;;4.35;100.00;101465.91;5040553;28;20990;-53
2023/01/03 05:08:55;;;;;;;3.20;1.03;;;;;;;4.36;100.00;101466.78;5028712;28;20468;-53
2023/01/03 05:11:21;;;;;;;0.87;0.87;;;;;;;4.39;100.00;101470.38;5044321;28;20995;-51
2023/01/03 05:13:48;;;;;;;0.83;0.83;;;;;;;4.40;100.00;101474.78;5046328;28;20462;-53
2023/01/03 05:16:15;;;;;;;1.13;1.03;;;;;;;4.42;100.00;101475.69;5041164;28;20550;-52
2023/01/03 05:18:42;;;;;;;0.80;0.80;;;;;;;4.32;100.00;101488.66;5039065;28;20448;-53
2023/01/03 05:26:51;;;;;;;0.40;0.30;;;;;;;3.98;100.00;101489.88;5045376;28;20849;-52
2023/01/03 05:29:19;;;;;;;0.50;0.50;;;;;;;3.85;100.00;101487.00;5040991;28;20513;-52
2023/01/03 05:31:46;;;;;;;0.50;0.47;;;;;;;4.98;100.00;101482.63;5038919;28;20487;-53
2023/01/03 05:34:13;;;;;;;1.50;0.77;;;;;;;4.39;100.00;101478.28;5043677;28;20529;-49
2023/01/03 05:36:40;;;;;;;1.00;0.90;;;;;;;3.99;100.00;101486.38;5045766;28;20458;-48
2023/01/03 05:39:06;;;;;;;0.77;0.73;;;;;;;4.01;100.00;101482.91;5042048;28;20493;-48
2023/01/03 05:44:18;;;;;;;1.47;1.37;;;;;;;3.72;100.00;101481.50;5040255;28;20447;-48
2023/01/03 05:46:45;;;;;;;0.93;0.67;;;;;;;3.65;100.00;101485.75;5037627;28;20447;-48
2023/01/03 05:49:11;;;;;;;1.30;1.13;;;;;;;3.54;100.00;101490.78;5039485;28;20475;-48
2023/01/03 05:51:37;;;;;;;0.73;0.73;;;;;;;3.50;100.00;101490.72;5045405;28;20509;-48
2023/01/03 05:54:04;;;;;;;2.80;2.70;;;;;;;3.46;100.00;101497.66;5044735;28;20457;-51
2023/01/03 05:56:31;;;;;;;6.73;0.60;;;;;;;3.35;100.00;101493.03;5038471;28;20458;-48
2023/01/03 05:58:58;;;;;;;0.60;0.60;;;;;;;3.38;100.00;101495.72;5039174;28;20472;-49
2023/01/03 06:01:27;;;;;;;0.50;0.30;;;;;;;3.28;100.00;101495.53;5045696;28;20531;-48
2023/01/03 06:03:54;;;;;;;0.80;0.80;;;;;;;3.30;100.00;101498.22;5045229;28;20455;-49
2023/01/03 06:06:20;;;;;;;0.30;0.30;;;;;;;3.27;100.00;101492.88;5038513;28;20497;-48
2023/01/03 06:08:47;;;;;;;0.40;0.30;;;;;;;3.41;100.00;101499.28;5027239;28;20478;-48
2023/01/03 06:11:15;;;;;;;4.53;0.80;;;;;;;3.21;100.00;101501.53;5045194;28;21028;-48
2023/01/03 06:13:41;;;;;;;2.90;0.93;;;;;;;3.36;100.00;101502.69;5045053;28;20848;-49
2023/01/03 06:18:57;;;;;;;0.47;0.47;;;;;;;3.22;100.00;101507.66;5038267;28;20464;-49
2023/01/03 06:21:24;;;;;;;1.03;0.77;;;;;;;3.00;100.00;101506.31;5042401;28;20451;-48
2023/01/03 06:23:50;;;;;;;0.80;0.80;;;;;;;3.00;100.00;101502.78;5045280;28;20550;-47
2023/01/03 06:26:19;;;;;;;0.30;0.23;;;;;;;2.89;100.00;101497.34;5041603;28;20447;-48
2023/01/03 06:28:46;;;;;;;6.90;1.20;;;;;;;2.91;100.00;101500.88;5038363;28;20477;-48
2023/01/03 06:31:13;;;;;;;0.87;0.87;;;;;;;2.94;100.00;101500.94;5041848;28;20898;-48
2023/01/03 06:33:40;;;;;;;0.90;0.90;;;;;;;2.91;100.00;101509.63;5045082;28;20447;-49
2023/01/03 06:36:09;;;;;;;2.83;1.77;;;;;;;3.01;100.00;101507.19;5042212;28;20454;-48
2023/01/03 06:38:36;;;;;;;0.60;0.60;;;;;;;2.94;100.00;101506.19;5038225;28;20819;-49
2023/01/03 06:41:04;;;;;;;0.57;0.57;;;;;;;2.99;100.00;101512.41;5044810;28;20756;-49
2023/01/03 06:43:30;;;;;;;1.53;1.17;;;;;;;3.13;100.00;101517.97;5049161;28;20475;-49
2023/01/03 06:54:27;;;;;;;0.40;0.40;;;;;;;2.89;100.00;101524.47;5042340;28;20442;-50
2023/01/03 06:56:54;;;;;;;1.10;0.77;;;;;;;2.83;100.00;101520.81;5044262;28;20454;-49
2023/01/03 06:59:22;;;;;;;0.93;0.93;;;;;;;2.86;100.00;101519.13;5041668;28;20483;-49
2023/01/03 07:01:50;;;;;;;1.97;0.67;;;;;;;2.65;100.00;101519.53;5045931;28;20451;-48
2023/01/03 07:04:18;;;;;;;0.60;0.60;;;;;;;2.62;100.00;101519.47;5048286;28;20820;-48
2023/01/03 07:06:44;;;;;;;0.30;0.20;;;;;;;2.76;100.00;101534.66;5041149;28;20457;-48
2023/01/03 07:09:11;;;;;;;1.57;0.70;;;;;;;2.68;100.00;101542.34;5035105;28;20478;-48
2023/01/03 07:11:38;;;;;;;17.90;1.43;;;;;;;2.86;100.00;101544.50;5044837;28;20495;-49
2023/01/03 07:14:07;;;;;;;1.23;0.67;;;;;;;2.90;100.00;101546.38;5048705;28;20447;-49
2023/01/03 07:16:43;;;;;;;1.07;0.63;;;;;;;3.18;100.00;101559.25;5045544;28;20894;-48
2023/01/03 07:19:12;;;;;;;0.77;0.77;;;;;;;3.10;100.00;101555.56;5041846;28;20473;-48
2023/01/03 07:21:39;;;;;;;0.50;0.43;;;;;;;3.04;100.00;101555.44;5043302;28;20554;-48
2023/01/03 07:24:06;;;;;;;0.57;0.40;;;;;;;3.21;100.00;101563.69;5048471;28;20475;-48
2023/01/03 07:26:34;;;;;;;0.77;0.77;;;;;;;3.09;100.00;101568.66;5046676;28;20451;-48
2023/01/03 07:29:04;;;;;;;0.53;0.53;;;;;;;2.93;100.00;101559.56;5041320;28;21055;-48
2023/01/03 07:31:33;;;;;;;1.40;0.87;;;;;;;2.96;100.00;101564.88;5042074;28;20484;-48
2023/01/03 07:34:00;;;;;;;1.73;1.10;;;;;;;3.10;100.00;101571.31;5048064;28;20538;-47
2023/01/03 07:36:26;;;;;;;3.63;0.70;;;;;;;3.06;100.00;101568.59;5047835;28;20508;-47
2023/01/03 07:38:54;;;;;;;1.87;1.20;;;;;;;3.21;100.00;101566.31;5021602;28;20478;-47
2023/01/03 07:41:21;;;;;;;0.77;0.67;;;;;;;2.98;100.00;101560.53;5047564;28;20457;-47
2023/01/03 07:43:48;;;;;;;1.40;0.67;;;;;;;2.83;100.00;101571.56;5048121;28;20459;-47
2023/01/03 07:46:20;;;;;;;0.50;0.50;;;;;;;2.98;100.00;101566.69;5035762;28;20454;-47
2023/01/03 07:48:49;;;;;;;1.03;0.60;;;;;;;2.89;100.00;101573.47;5045626;28;20867;-47
2023/01/03 07:51:17;;;;;;;0.70;0.70;;;;;;;2.83;100.00;101573.31;5044885;28;20486;-47
2023/01/03 07:53:44;;;;;;;2.20;2.10;;;;;;;2.77;100.00;101579.31;5039646;28;20474;-47
2023/01/03 07:56:13;;;;;;;0.80;0.80;;;;;;;2.68;100.00;101584.34;5040859;28;20470;-47
2023/01/03 07:58:42;;;;;;;0.80;0.57;;;;;;;2.66;100.00;101580.78;5044399;28;20448;-48
2023/01/03 08:01:14;;;;;;;0.63;0.63;;;;;;;2.73;100.00;101579.19;5047500;28;20964;-48
2023/01/03 08:03:41;;;;;;;1.00;0.70;;;;;;;2.61;100.00;101591.19;5045017;28;20455;-48
2023/01/03 08:06:10;;;;;;;0.40;0.30;;;;;;;2.93;100.00;101601.56;5040541;28;20447;-48
2023/01/03 08:08:37;;;;;;;0.50;0.50;;;;;;;2.67;100.00;101595.69;5030740;28;20538;-48
2023/01/03 08:13:49;;;;;;;1.47;1.37;;;;;;;2.56;100.00;101603.28;5047273;28;20442;-48
2023/01/03 08:16:17;;;;;;;2.70;1.70;;;;;;;2.55;100.00;101606.78;5041678;28;20451;-48
2023/01/03 08:18:44;;;;;;;1.70;0.60;;;;;;;2.56;100.00;101610.28;5040182;28;20855;-49
2023/01/03 08:21:13;;;;;;;0.80;0.80;;;;;;;2.86;100.00;101604.88;5045778;28;20448;-48
2023/01/03 08:23:41;;;;;;;0.50;0.50;;;;;;;2.95;100.00;101610.38;5046818;28;20453;-48
2023/01/03 08:26:12;;;;;;;1.57;1.47;;;;;;;2.93;100.00;101610.34;5042757;28;20450;-48
2023/01/03 08:28:40;;;;;;;2.87;1.90;;;;;;;3.03;100.00;101608.81;5023764;28;20470;-48
2023/01/03 08:31:24;;;;;;;1.27;1.27;;;;;;;3.09;100.00;101611.56;5043786;28;20489;-48
2023/01/03 08:33:54;;;;;;;1.07;1.07;;;;;;;3.26;100.00;101604.06;5040478;28;20447;-49
2023/01/03 08:36:22;;;;;;;1.90;1.80;;;;;;;3.46;100.00;101612.41;5040603;28;20462;-49
2023/01/03 08:39:04;;;;;;;0.60;0.60;;;;;;;3.54;100.00;101613.44;5039683;28;20470;-49
2023/01/03 08:41:33;;;;;;;0.40;0.40;;;;;;;3.74;100.00;101606.88;5040090;28;20450;-47
2023/01/03 08:44:02;;;;;;;0.87;0.77;;;;;;;3.82;100.00;101609.66;5044034;28;20451;-46
2023/01/03 08:46:29;;;;;;;20.07;1.37;;;;;;;3.86;100.00;101606.25;5033649;28;20447;-46
2023/01/03 08:48:56;;;;;;;1.53;1.43;;;;;;;3.98;100.00;101609.13;5043150;28;20503;-46
2023/01/03 08:51:25;;;;;;;6.90;3.93;;;;;;;4.22;100.00;101610.41;5046512;28;21012;-46
2023/01/03 08:53:52;;;;;;;3.63;2.67;;;;;;;4.20;100.00;101613.03;5044170;28;20541;-47
2023/01/03 08:56:19;;;;;;;6.00;2.13;;;;;;;4.20;100.00;101615.66;5039515;28;20516;-47
2023/01/03 08:58:45;;;;;;;1.57;1.47;;;;;;;4.25;100.00;101624.53;5042294;28;20467;-47
2023/01/03 09:01:12;;;;;;;1.80;1.70;;;;;;;4.45;100.00;101617.00;5046514;28;20832;-47
2023/01/03 09:03:39;;;;;;;1.57;1.47;;;;;;;4.47;100.00;101620.53;5043876;28;20796;-47
2023/01/03 09:06:06;;;;;;;1.53;1.43;;;;;;;4.60;100.00;101624.28;5039452;28;20932;-47
2023/01/03 09:08:33;;;;;;;7.13;1.50;;;;;;;4.63;100.00;101625.19;5030471;28;20448;-49
2023/01/03 09:11:06;;;;;;;3.23;2.93;;;;;;;4.66;100.00;101619.09;5041869;28;20452;-47
2023/01/03 09:13:34;;;;;;;4.97;3.17;;;;;;;4.81;100.00;101626.41;5038448;28;20453;-48
2023/01/03 09:16:02;;;;;;;3.17;2.70;;;;;;;4.56;100.00;101625.09;5039486;28;20466;-47
2023/01/03 09:18:29;;;;;;;1.47;1.00;;;;;;;4.57;100.00;101626.84;5039811;28;20455;-47
2023/01/03 09:20:55;;;;;;;3.63;2.97;;;;;;;4.85;100.00;101623.81;5046112;28;20452;-47
2023/01/03 09:23:22;;;;;;;1.67;1.57;;;;;;;5.05;100.00;101630.28;5045716;28;20459;-47
2023/01/03 09:25:48;;;;;;;1.30;1.20;;;;;;;5.15;100.00;101639.22;5039300;28;20457;-47
2023/01/03 09:28:15;;;;;;;1.70;1.23;;;;;;;5.29;100.00;101631.53;5039489;28;20452;-47
2023/01/03 09:30:41;;;;;;;3.70;2.83;;;;;;;5.29;100.00;101626.25;5045654;28;20471;-47
2023/01/03 09:33:09;;;;;;;1.10;1.00;;;;;;;5.47;100.00;101629.13;5045850;28;20497;-47
2023/01/03 09:35:38;;;;;;;2.13;1.93;;;;;;;5.34;100.00;101627.19;5039752;28;20451;-47
2023/01/03 09:38:05;;;;;;;2.10;1.90;;;;;;;5.44;100.00;101631.72;5038796;28;20459;-47
2023/01/03 09:40:38;;;;;;;2.20;2.10;;;;;;;5.47;100.00;101625.63;5044882;28;20993;-47
2023/01/03 09:43:13;;;;;;;1.63;1.20;;;;;;;5.57;100.00;101628.41;5045846;28;20446;-47
2023/01/03 09:45:52;;;;;;;1.70;1.60;;;;;;;5.86;100.00;101630.53;5032545;28;20809;-47
2023/01/03 09:48:26;;;;;;;5.37;4.83;;;;;;;5.95;100.00;101628.03;5045734;28;20448;-48
2023/01/03 09:50:52;;;;;;;2.40;2.30;;;;;;;6.08;100.00;101629.06;5045385;28;20451;-48
2023/01/03 10:04:53;;;;;;;1.77;1.67;;;;;;;6.53;100.00;101644.50;5044904;28;20443;-48
2023/01/03 10:07:47;;;;;;;5.53;1.70;;;;;;;6.62;100.00;101646.38;5034207;28;20451;-49
2023/01/03 10:10:51;;;;;;;3.63;2.13;;;;;;;6.77;100.00;101646.50;5032225;28;21008;-50
2023/01/03 10:13:32;;;;;;;1.07;1.07;;;;;;;6.78;100.00;101649.16;5034062;28;20960;-48
2023/01/03 10:16:23;;;;;;;1.83;1.73;;;;;;;6.77;100.00;101644.75;5043043;28;20443;-49
2023/01/03 10:19:17;;;;;;;4.87;2.13;;;;;;;6.89;100.00;101645.72;5042677;28;20884;-48
2023/01/03 10:22:02;;;;;;;6.33;2.07;;;;;;;7.07;100.00;101651.16;5043008;28;20450;-49
2023/01/03 10:24:31;;;;;;;2.53;1.53;;;;;;;7.09;100.00;101647.63;5034052;28;20453;-50
2023/01/03 10:27:12;;;;;;;5.30;2.63;;;;;;;7.13;100.00;101645.91;5042305;28;20465;-49
2023/01/03 10:29:38;;;;;;;1.20;1.10;;;;;;;7.15;100.00;101645.94;5044599;28;20464;-49
2023/01/03 10:32:20;;;;;;;3.80;3.07;;;;;;;7.28;100.00;101638.09;5048972;28;20519;-50
2023/01/03 10:35:20;;;;;;;1.63;1.57;;;;;;;7.27;100.00;101633.69;5049684;28;20813;-50
2023/01/03 10:37:50;;;;;;;3.17;2.87;;;;;;;7.34;100.00;101634.59;5026149;28;20457;-48
2023/01/03 10:40:16;;;;;;;4.37;4.07;;;;;;;7.51;100.00;101640.84;5047858;28;20575;-48
2023/01/03 10:42:44;;;;;;;2.63;2.43;;;;;;;7.49;100.00;101636.44;5047757;28;20446;-49
2023/01/03 10:45:19;;;;;;;4.60;3.33;;;;;;;7.47;100.00;101628.50;5036940;28;20458;-50
2023/01/03 10:48:00;;;;;;;3.17;2.63;;;;;;;7.57;100.00;101632.09;5049002;28;20439;-49
2023/01/03 10:50:28;;;;;;;3.20;3.03;;;;;;;7.57;100.00;101632.97;5044716;28;20474;-49
2023/01/03 10:53:04;;;;;;;3.13;2.93;;;;;;;7.61;100.00;101628.56;5041966;28;20498;-48
2023/01/03 10:55:33;;;;;;;1.70;1.60;;;;;;;7.70;100.00;101625.97;5044720;28;20997;-49
2023/01/03 10:58:02;;;;;;;5.30;3.20;;;;;;;7.78;100.00;101618.06;5048584;28;20583;-49
2023/01/03 11:00:33;;;;;;;2.97;2.77;;;;;;;7.86;100.00;101613.69;5047266;28;20477;-51
2023/01/03 11:03:01;;;;;;;3.30;3.00;;;;;;;7.82;100.00;101610.16;5042123;28;20533;-49
2023/01/03 11:05:28;;;;;;;8.47;2.80;;;;;;;7.88;100.00;101615.47;5042001;28;20475;-48
2023/01/03 11:07:57;;;;;;;5.57;4.33;;;;;;;7.91;100.00;101606.63;5033744;28;20454;-48
2023/01/03 11:10:36;;;;;;;3.70;2.77;;;;;;;7.97;100.00;101607.56;5041264;28;20467;-49
2023/01/03 11:13:23;;;;;;;2.93;2.77;;;;;;;8.03;100.00;101599.63;5043899;28;21045;-48
2023/01/03 11:15:54;;;;;;;3.00;2.70;;;;;;;8.13;100.00;101597.00;5041487;28;20454;-50
2023/01/03 11:18:21;;;;;;;21.83;3.70;;;;;;;8.12;100.00;101597.91;5042613;28;20455;-48
2023/01/03 11:20:54;;;;;;;3.40;2.50;;;;;;;8.11;100.00;101597.00;5048162;28;21095;-48
2023/01/03 11:23:45;;;;;;;1.37;1.20;;;;;;;8.27;100.00;101590.84;5048323;28;20469;-49
2023/01/03 11:26:23;;;;;;;3.73;3.60;;;;;;;8.35;100.00;101588.25;5044253;28;20492;-49
2023/01/03 11:29:20;;;;;;;3.27;3.07;;;;;;;8.46;100.00;101591.78;5036117;28;20980;-49
2023/01/03 11:31:53;;;;;;;6.07;3.47;;;;;;;8.56;100.00;101587.41;5048111;28;20490;-48
2023/01/03 11:34:38;;;;;;;6.77;3.50;;;;;;;8.60;100.00;101583.84;5045843;28;20537;-46
2023/01/03 11:37:42;;;;;;;2.80;2.53;;;;;;;8.71;100.00;101576.78;5018284;28;20472;-45
2023/01/03 11:40:32;;;;;;;3.33;3.07;;;;;;;8.86;100.00;101576.78;5046451;28;20468;-46
2023/01/03 11:43:18;;;;;;;3.80;3.60;;;;;;;8.96;100.00;101572.34;5047659;28;20943;-46
2023/01/03 11:46:05;;;;;;;6.10;3.60;;;;;;;9.17;100.00;101577.59;5034670;28;20526;-46
2023/01/03 11:48:53;;;;;;;4.20;3.90;;;;;;;9.66;100.00;101576.59;5028558;28;20537;-46
2023/01/03 11:51:41;;;;;;;4.47;3.40;;;;;;;9.37;100.00;101574.94;5040685;28;20450;-47
2023/01/03 11:54:22;;;;;;;4.10;3.90;;;;;;;9.29;100.00;101573.16;5035201;28;20448;-46
2023/01/03 11:56:49;;;;;;;2.97;2.70;;;;;;;9.24;100.00;101569.66;5030139;28;20458;-49
2023/01/03 11:59:49;;;;;;;7.33;2.87;;;;;;;9.29;100.00;101567.84;5041049;28;20472;-47
2023/01/03 12:02:53;;;;;;;4.10;3.37;;;;;;;9.24;100.00;101567.88;5041494;28;20550;-47
2023/01/03 12:05:34;;;;;;;7.57;4.23;;;;;;;9.31;100.00;101566.09;5036684;28;20442;-47
2023/01/03 12:08:07;;;;;;;5.57;5.10;;;;;;;9.43;100.00;101564.28;5040382;28;20449;-47
2023/01/03 12:11:00;;;;;;;5.20;4.70;;;;;;;9.43;100.00;101566.03;5040302;28;20993;-46
2023/01/03 12:13:50;;;;;;;4.30;4.00;;;;;;;9.45;100.00;101562.50;5041787;28;20505;-47
2023/01/03 12:16:25;;;;;;;6.37;4.50;;;;;;;9.47;100.00;101554.56;5029424;28;20879;-47
2023/01/03 12:19:21;;;;;;;5.57;3.10;;;;;;;9.46;100.00;101560.75;5040546;28;20468;-47
2023/01/03 12:21:54;;;;;;;3.17;2.97;;;;;;;9.56;100.00;101567.78;5036161;28;20551;-47
2023/01/03 12:24:48;;;;;;;3.77;3.47;;;;;;;9.45;100.00;101570.47;5028681;28;20819;-47
2023/01/03 12:27:21;;;;;;;2.50;2.30;;;;;;;9.49;100.00;101563.38;5040291;28;20454;-46
2023/01/03 12:30:01;;;;;;;3.00;2.80;;;;;;;9.58;100.00;101566.00;5041757;28;20472;-46
2023/01/03 12:32:43;;;;;;;2.93;2.73;;;;;;;9.61;100.00;101563.34;5028435;28;20482;-47
2023/01/03 12:35:36;;;;;;;3.53;3.13;;;;;;;9.55;100.00;101554.50;5040247;28;21090;-47
2023/01/03 12:38:05;;;;;;;4.10;3.03;;;;;;;9.58;100.00;101554.50;5038860;28;20959;-47
2023/01/03 12:40:40;;;;;;;4.17;3.47;;;;;;;9.56;100.00;101557.16;5046023;28;20511;-47
2023/01/03 12:43:19;;;;;;;3.70;3.37;;;;;;;9.64;100.00;101551.81;5046641;28;20438;-47
2023/01/03 12:45:55;;;;;;;2.20;2.07;;;;;;;9.60;100.00;101550.09;5033440;28;20918;-47
2023/01/03 12:48:43;;;;;;;3.67;2.10;;;;;;;9.65;100.00;101549.16;5046534;28;20886;-48